Aeroporto :
LOGIN :

Iscrizione | Disclaimer

   EN    FR    IT 

 










Sommario :    VFR   VFR Marginale   IFR   IFR Intensivo   IFR Molto Intensivo
Visibilità : 
Base nubi : 
>= 8 km
>= 3000ft
5 / 8 km
1000 / 3000 ft
1500m / 5 km
500 / 1000 ft
800 / 1500m
200 / 500 ft
< 800m
< 200 ft
Simboli :   Temporali  Nebbia  Neve Forte  Precipitazioni Forti  Vento > 20 kt
SIGMETs :   Varie  Temporali  Ghiacco  Turbolenza  Onda orograficha  Ceneri Vulcaniche






- Altitudine del aeroporto : 24 ft
- Codice IATA : IBZ


LEIB - Ibiza

ULTIMO METAR :
  • 280230Z 35005KT CAVOK 18/15 Q1013 NOSIG

METARs OBSOLETI :
  • 280200Z 36006KT 9999 FEW045TCU 17/15 Q1013 NOSIG
  • 280130Z 33004KT 9999 FEW045TCU 17/16 Q1013 NOSIG
  • 280100Z VRB04KT 9999 -RA FEW018TCU SCT034 19/16 Q1013 NOSIG
  • 280030Z 01004KT 300V050 9999 FEW018 SCT034 18/15 Q1013 NOSIG
  • 280000Z 34003KT 9999 -RA SCT036 18/14 Q1014 NOSIG

TAF TAF LEIB
Valido dal 28 a 03 ore il 29 a 03 ore UTC


280200Z 2803/2903 34010KT 9999 FEW014 TX24/2812Z TN17/2805Z
TEMPO 2803/2806 VRB04KT
BECMG 2810/2812 22010KT
PROB30
TEMPO 2810/2817 16005KT
BECMG 2817/2819 VRB04KT
BECMG 2900/2902 02005KT



MetMap, La meteo Aeronautica in un colpo d'occhio ! - Copyright ORBIFLY Dicembre 2007 - Disclaimer

ORBIFLY MET'MAP TEAM :

Programmazione e sviluppo : Alexandra Zaïnal
Concezione : Baudouin d'Aumeries
Aiuto per la programmazione : Marc-Olivier Méhu
Supporto tecnico e logistico : Manuel Goepfert
Aiuto per la traduzione : Arnaldo La Scala

Contatto : metmap@orbifly.com




FONTI E CREDITI :

   NOAA